sensor_id;sensor_type;location;lat;lon;timestamp;P1;durP1;ratioP1;P2;durP2;ratioP2
7997;SDS011;4044;49.814;7.828;2024-02-26T00:01:22;2.40;;;1.80;;
7997;SDS011;4044;49.814;7.828;2024-02-26T00:03:48;2.30;;;2.10;;
7997;SDS011;4044;49.814;7.828;2024-02-26T00:06:14;1.77;;;1.67;;
7997;SDS011;4044;49.814;7.828;2024-02-26T00:08:39;2.03;;;1.90;;
7997;SDS011;4044;49.814;7.828;2024-02-26T00:11:05;1.60;;;1.50;;
7997;SDS011;4044;49.814;7.828;2024-02-26T00:13:30;2.47;;;1.77;;
7997;SDS011;4044;49.814;7.828;2024-02-26T00:15:56;1.83;;;1.73;;
7997;SDS011;4044;49.814;7.828;2024-02-26T00:18:22;2.20;;;1.87;;
7997;SDS011;4044;49.814;7.828;2024-02-26T00:20:47;2.00;;;1.90;;
7997;SDS011;4044;49.814;7.828;2024-02-26T00:23:14;1.70;;;1.57;;
7997;SDS011;4044;49.814;7.828;2024-02-26T00:25:40;1.80;;;1.70;;
7997;SDS011;4044;49.814;7.828;2024-02-26T00:28:07;2.10;;;1.90;;
7997;SDS011;4044;49.814;7.828;2024-02-26T00:30:33;1.80;;;1.70;;
7997;SDS011;4044;49.814;7.828;2024-02-26T00:32:58;1.93;;;1.83;;
7997;SDS011;4044;49.814;7.828;2024-02-26T00:35:24;1.90;;;1.80;;
7997;SDS011;4044;49.814;7.828;2024-02-26T00:37:50;2.00;;;1.80;;
7997;SDS011;4044;49.814;7.828;2024-02-26T00:40:15;1.70;;;1.60;;
7997;SDS011;4044;49.814;7.828;2024-02-26T00:42:41;2.00;;;1.77;;
7997;SDS011;4044;49.814;7.828;2024-02-26T00:45:10;1.80;;;1.70;;
7997;SDS011;4044;49.814;7.828;2024-02-26T00:47:39;1.70;;;1.60;;
7997;SDS011;4044;49.814;7.828;2024-02-26T00:50:09;2.30;;;2.10;;
7997;SDS011;4044;49.814;7.828;2024-02-26T00:52:34;1.87;;;1.77;;
7997;SDS011;4044;49.814;7.828;2024-02-26T00:55:01;2.60;;;2.03;;
7997;SDS011;4044;49.814;7.828;2024-02-26T00:57:27;2.83;;;1.77;;
7997;SDS011;4044;49.814;7.828;2024-02-26T00:59:53;2.50;;;1.77;;
7997;SDS011;4044;49.814;7.828;2024-02-26T01:02:20;1.73;;;1.63;;
7997;SDS011;4044;49.814;7.828;2024-02-26T01:04:46;1.93;;;1.83;;
7997;SDS011;4044;49.814;7.828;2024-02-26T01:07:12;2.20;;;1.60;;
7997;SDS011;4044;49.814;7.828;2024-02-26T01:09:38;1.73;;;1.60;;
7997;SDS011;4044;49.814;7.828;2024-02-26T01:12:03;1.70;;;1.60;;
7997;SDS011;4044;49.814;7.828;2024-02-26T01:14:29;1.63;;;1.53;;
7997;SDS011;4044;49.814;7.828;2024-02-26T01:16:54;1.90;;;1.70;;
7997;SDS011;4044;49.814;7.828;2024-02-26T01:19:20;1.60;;;1.50;;
7997;SDS011;4044;49.814;7.828;2024-02-26T01:21:46;1.53;;;1.43;;
7997;SDS011;4044;49.814;7.828;2024-02-26T01:24:11;2.17;;;1.70;;
7997;SDS011;4044;49.814;7.828;2024-02-26T01:26:37;1.90;;;1.70;;
7997;SDS011;4044;49.814;7.828;2024-02-26T01:29:03;2.00;;;1.80;;
7997;SDS011;4044;49.814;7.828;2024-02-26T01:31:28;1.80;;;1.70;;
7997;SDS011;4044;49.814;7.828;2024-02-26T01:33:54;1.93;;;1.70;;
7997;SDS011;4044;49.814;7.828;2024-02-26T01:36:19;1.60;;;1.50;;
7997;SDS011;4044;49.814;7.828;2024-02-26T01:38:46;1.57;;;1.40;;
7997;SDS011;4044;49.814;7.828;2024-02-26T01:41:13;1.67;;;1.57;;
7997;SDS011;4044;49.814;7.828;2024-02-26T01:43:39;1.80;;;1.70;;
7997;SDS011;4044;49.814;7.828;2024-02-26T01:46:05;3.53;;;2.00;;
7997;SDS011;4044;49.814;7.828;2024-02-26T01:48:31;1.70;;;1.60;;
7997;SDS011;4044;49.814;7.828;2024-02-26T01:50:57;1.80;;;1.70;;
7997;SDS011;4044;49.814;7.828;2024-02-26T01:53:23;6.23;;;2.40;;
7997;SDS011;4044;49.814;7.828;2024-02-26T01:55:49;2.00;;;1.90;;
7997;SDS011;4044;49.814;7.828;2024-02-26T01:58:15;2.23;;;1.90;;
7997;SDS011;4044;49.814;7.828;2024-02-26T02:00:41;2.30;;;2.00;;
7997;SDS011;4044;49.814;7.828;2024-02-26T02:03:07;2.10;;;2.00;;
7997;SDS011;4044;49.814;7.828;2024-02-26T02:05:33;2.07;;;1.97;;
7997;SDS011;4044;49.814;7.828;2024-02-26T02:08:06;2.17;;;2.03;;
7997;SDS011;4044;49.814;7.828;2024-02-26T02:10:32;2.27;;;2.00;;
7997;SDS011;4044;49.814;7.828;2024-02-26T02:12:59;2.10;;;2.00;;
7997;SDS011;4044;49.814;7.828;2024-02-26T02:15:24;2.40;;;2.20;;
7997;SDS011;4044;49.814;7.828;2024-02-26T02:17:50;2.20;;;2.10;;
7997;SDS011;4044;49.814;7.828;2024-02-26T02:20:16;2.27;;;2.07;;
7997;SDS011;4044;49.814;7.828;2024-02-26T02:22:44;2.20;;;2.00;;
7997;SDS011;4044;49.814;7.828;2024-02-26T02:25:10;2.20;;;2.10;;
7997;SDS011;4044;49.814;7.828;2024-02-26T02:27:35;2.50;;;2.30;;
7997;SDS011;4044;49.814;7.828;2024-02-26T02:30:01;2.33;;;2.13;;
7997;SDS011;4044;49.814;7.828;2024-02-26T02:32:28;2.50;;;2.30;;
7997;SDS011;4044;49.814;7.828;2024-02-26T02:34:55;2.30;;;2.10;;
7997;SDS011;4044;49.814;7.828;2024-02-26T02:37:21;2.43;;;2.33;;
7997;SDS011;4044;49.814;7.828;2024-02-26T02:39:47;2.40;;;2.20;;
7997;SDS011;4044;49.814;7.828;2024-02-26T02:42:12;2.87;;;2.47;;
7997;SDS011;4044;49.814;7.828;2024-02-26T02:44:38;2.33;;;2.23;;
7997;SDS011;4044;49.814;7.828;2024-02-26T02:47:03;2.50;;;2.30;;
7997;SDS011;4044;49.814;7.828;2024-02-26T02:49:29;2.73;;;2.53;;
7997;SDS011;4044;49.814;7.828;2024-02-26T02:51:54;2.60;;;2.40;;
7997;SDS011;4044;49.814;7.828;2024-02-26T02:54:22;3.57;;;3.00;;
7997;SDS011;4044;49.814;7.828;2024-02-26T02:56:47;5.13;;;2.80;;
7997;SDS011;4044;49.814;7.828;2024-02-26T02:59:13;2.63;;;2.43;;
7997;SDS011;4044;49.814;7.828;2024-02-26T03:01:39;3.23;;;2.57;;
7997;SDS011;4044;49.814;7.828;2024-02-26T03:04:04;2.53;;;2.33;;
7997;SDS011;4044;49.814;7.828;2024-02-26T03:06:30;2.60;;;2.40;;
7997;SDS011;4044;49.814;7.828;2024-02-26T03:08:55;2.90;;;2.60;;
7997;SDS011;4044;49.814;7.828;2024-02-26T03:11:21;3.17;;;2.57;;
7997;SDS011;4044;49.814;7.828;2024-02-26T03:13:46;5.40;;;2.60;;
7997;SDS011;4044;49.814;7.828;2024-02-26T03:16:12;2.30;;;2.10;;
7997;SDS011;4044;49.814;7.828;2024-02-26T03:18:40;3.20;;;2.10;;
7997;SDS011;4044;49.814;7.828;2024-02-26T03:21:06;2.23;;;2.03;;
7997;SDS011;4044;49.814;7.828;2024-02-26T03:23:32;2.10;;;1.90;;
7997;SDS011;4044;49.814;7.828;2024-02-26T03:26:01;2.10;;;1.97;;
7997;SDS011;4044;49.814;7.828;2024-02-26T03:28:30;2.30;;;2.10;;
7997;SDS011;4044;49.814;7.828;2024-02-26T03:30:59;2.37;;;2.23;;
7997;SDS011;4044;49.814;7.828;2024-02-26T03:33:25;2.37;;;2.17;;
7997;SDS011;4044;49.814;7.828;2024-02-26T03:35:50;2.43;;;2.23;;
7997;SDS011;4044;49.814;7.828;2024-02-26T03:38:16;3.13;;;2.00;;
7997;SDS011;4044;49.814;7.828;2024-02-26T03:40:41;2.87;;;2.43;;
7997;SDS011;4044;49.814;7.828;2024-02-26T03:43:07;3.47;;;2.20;;
7997;SDS011;4044;49.814;7.828;2024-02-26T03:45:33;3.53;;;1.90;;
7997;SDS011;4044;49.814;7.828;2024-02-26T03:47:58;2.17;;;2.07;;
7997;SDS011;4044;49.814;7.828;2024-02-26T03:50:24;2.70;;;1.93;;
7997;SDS011;4044;49.814;7.828;2024-02-26T03:52:50;3.60;;;2.00;;
7997;SDS011;4044;49.814;7.828;2024-02-26T03:55:15;1.77;;;1.60;;
7997;SDS011;4044;49.814;7.828;2024-02-26T03:57:43;1.73;;;1.63;;
7997;SDS011;4044;49.814;7.828;2024-02-26T04:00:08;1.90;;;1.80;;
7997;SDS011;4044;49.814;7.828;2024-02-26T04:02:34;2.17;;;1.80;;
7997;SDS011;4044;49.814;7.828;2024-02-26T04:05:00;2.00;;;1.90;;
7997;SDS011;4044;49.814;7.828;2024-02-26T04:07:26;1.70;;;1.60;;
7997;SDS011;4044;49.814;7.828;2024-02-26T04:09:51;1.97;;;1.77;;
7997;SDS011;4044;49.814;7.828;2024-02-26T04:12:16;2.53;;;2.00;;
7997;SDS011;4044;49.814;7.828;2024-02-26T04:14:42;2.10;;;2.00;;
7997;SDS011;4044;49.814;7.828;2024-02-26T04:17:07;2.00;;;1.90;;
7997;SDS011;4044;49.814;7.828;2024-02-26T04:19:33;1.90;;;1.80;;
7997;SDS011;4044;49.814;7.828;2024-02-26T04:21:59;2.00;;;1.90;;
7997;SDS011;4044;49.814;7.828;2024-02-26T04:24:24;4.60;;;2.47;;
7997;SDS011;4044;49.814;7.828;2024-02-26T04:26:50;1.87;;;1.77;;
7997;SDS011;4044;49.814;7.828;2024-02-26T04:29:15;1.97;;;1.87;;
7997;SDS011;4044;49.814;7.828;2024-02-26T04:31:41;2.07;;;1.87;;
7997;SDS011;4044;49.814;7.828;2024-02-26T04:34:07;1.80;;;1.70;;
7997;SDS011;4044;49.814;7.828;2024-02-26T04:36:33;2.10;;;1.90;;
7997;SDS011;4044;49.814;7.828;2024-02-26T04:38:59;2.43;;;2.20;;
7997;SDS011;4044;49.814;7.828;2024-02-26T04:41:24;2.70;;;2.50;;
7997;SDS011;4044;49.814;7.828;2024-02-26T04:43:50;2.80;;;2.60;;
7997;SDS011;4044;49.814;7.828;2024-02-26T04:46:15;4.07;;;3.10;;
7997;SDS011;4044;49.814;7.828;2024-02-26T04:48:41;2.80;;;2.60;;
7997;SDS011;4044;49.814;7.828;2024-02-26T04:51:07;3.03;;;2.83;;
7997;SDS011;4044;49.814;7.828;2024-02-26T04:53:32;3.40;;;2.67;;
7997;SDS011;4044;49.814;7.828;2024-02-26T04:55:58;3.43;;;2.97;;
7997;SDS011;4044;49.814;7.828;2024-02-26T04:58:23;4.77;;;3.13;;
7997;SDS011;4044;49.814;7.828;2024-02-26T05:00:49;4.87;;;3.47;;
7997;SDS011;4044;49.814;7.828;2024-02-26T05:03:14;3.63;;;3.13;;
7997;SDS011;4044;49.814;7.828;2024-02-26T05:05:41;3.20;;;3.00;;
7997;SDS011;4044;49.814;7.828;2024-02-26T05:08:08;3.67;;;3.20;;
7997;SDS011;4044;49.814;7.828;2024-02-26T05:10:33;3.27;;;2.97;;
7997;SDS011;4044;49.814;7.828;2024-02-26T05:12:59;3.53;;;3.00;;
7997;SDS011;4044;49.814;7.828;2024-02-26T05:15:25;3.17;;;2.87;;
7997;SDS011;4044;49.814;7.828;2024-02-26T05:17:50;3.13;;;2.93;;
7997;SDS011;4044;49.814;7.828;2024-02-26T05:20:16;2.90;;;2.70;;
7997;SDS011;4044;49.814;7.828;2024-02-26T05:22:42;1.90;;;1.80;;
7997;SDS011;4044;49.814;7.828;2024-02-26T05:25:07;2.60;;;2.40;;
7997;SDS011;4044;49.814;7.828;2024-02-26T05:27:33;2.23;;;2.13;;
7997;SDS011;4044;49.814;7.828;2024-02-26T05:29:58;2.63;;;2.43;;
7997;SDS011;4044;49.814;7.828;2024-02-26T05:32:24;1.57;;;1.50;;
7997;SDS011;4044;49.814;7.828;2024-02-26T05:34:49;2.50;;;2.30;;
7997;SDS011;4044;49.814;7.828;2024-02-26T05:37:15;1.40;;;1.30;;
7997;SDS011;4044;49.814;7.828;2024-02-26T05:39:40;1.80;;;1.70;;
7997;SDS011;4044;49.814;7.828;2024-02-26T05:42:06;1.80;;;1.70;;
7997;SDS011;4044;49.814;7.828;2024-02-26T05:44:33;2.83;;;2.60;;
7997;SDS011;4044;49.814;7.828;2024-02-26T05:46:59;2.97;;;2.77;;
7997;SDS011;4044;49.814;7.828;2024-02-26T05:49:25;3.07;;;2.87;;
7997;SDS011;4044;49.814;7.828;2024-02-26T05:51:50;3.30;;;3.10;;
7997;SDS011;4044;49.814;7.828;2024-02-26T05:54:16;2.80;;;2.60;;
7997;SDS011;4044;49.814;7.828;2024-02-26T05:56:41;2.80;;;2.60;;
7997;SDS011;4044;49.814;7.828;2024-02-26T05:59:07;3.00;;;2.80;;
7997;SDS011;4044;49.814;7.828;2024-02-26T06:01:33;3.00;;;2.80;;
7997;SDS011;4044;49.814;7.828;2024-02-26T06:03:58;3.50;;;3.20;;
7997;SDS011;4044;49.814;7.828;2024-02-26T06:06:24;2.63;;;2.43;;
7997;SDS011;4044;49.814;7.828;2024-02-26T06:08:50;3.57;;;3.00;;
7997;SDS011;4044;49.814;7.828;2024-02-26T06:11:15;3.80;;;3.50;;
7997;SDS011;4044;49.814;7.828;2024-02-26T06:13:41;4.70;;;3.20;;
7997;SDS011;4044;49.814;7.828;2024-02-26T06:16:07;2.90;;;2.70;;
7997;SDS011;4044;49.814;7.828;2024-02-26T06:18:33;2.80;;;2.47;;
7997;SDS011;4044;49.814;7.828;2024-02-26T06:20:59;2.70;;;2.50;;
7997;SDS011;4044;49.814;7.828;2024-02-26T06:23:25;3.23;;;2.40;;
7997;SDS011;4044;49.814;7.828;2024-02-26T06:25:51;3.47;;;2.97;;
7997;SDS011;4044;49.814;7.828;2024-02-26T06:28:17;3.77;;;3.47;;
7997;SDS011;4044;49.814;7.828;2024-02-26T06:30:42;4.37;;;3.97;;
7997;SDS011;4044;49.814;7.828;2024-02-26T06:33:08;4.30;;;3.90;;
7997;SDS011;4044;49.814;7.828;2024-02-26T06:35:34;4.10;;;3.70;;
7997;SDS011;4044;49.814;7.828;2024-02-26T06:37:59;5.10;;;4.07;;
7997;SDS011;4044;49.814;7.828;2024-02-26T06:40:25;4.53;;;4.13;;
7997;SDS011;4044;49.814;7.828;2024-02-26T06:42:50;4.63;;;4.23;;
7997;SDS011;4044;49.814;7.828;2024-02-26T06:45:16;5.40;;;4.80;;
7997;SDS011;4044;49.814;7.828;2024-02-26T06:47:43;4.10;;;3.80;;
7997;SDS011;4044;49.814;7.828;2024-02-26T06:50:08;4.10;;;3.80;;
7997;SDS011;4044;49.814;7.828;2024-02-26T06:52:36;4.60;;;4.20;;
7997;SDS011;4044;49.814;7.828;2024-02-26T06:55:01;4.90;;;4.50;;
7997;SDS011;4044;49.814;7.828;2024-02-26T06:57:27;4.83;;;4.33;;
7997;SDS011;4044;49.814;7.828;2024-02-26T06:59:53;5.27;;;4.80;;
7997;SDS011;4044;49.814;7.828;2024-02-26T07:02:18;5.50;;;5.00;;
7997;SDS011;4044;49.814;7.828;2024-02-26T07:04:44;6.10;;;5.50;;
7997;SDS011;4044;49.814;7.828;2024-02-26T07:07:09;6.33;;;5.83;;
7997;SDS011;4044;49.814;7.828;2024-02-26T07:09:35;6.50;;;5.90;;
7997;SDS011;4044;49.814;7.828;2024-02-26T07:12:01;7.00;;;6.30;;
7997;SDS011;4044;49.814;7.828;2024-02-26T07:14:27;6.90;;;6.20;;
7997;SDS011;4044;49.814;7.828;2024-02-26T07:16:53;6.77;;;5.73;;
7997;SDS011;4044;49.814;7.828;2024-02-26T07:19:18;7.03;;;5.70;;
7997;SDS011;4044;49.814;7.828;2024-02-26T07:21:44;5.40;;;4.90;;
7997;SDS011;4044;49.814;7.828;2024-02-26T07:24:09;4.63;;;4.23;;
7997;SDS011;4044;49.814;7.828;2024-02-26T07:26:35;5.23;;;4.43;;
7997;SDS011;4044;49.814;7.828;2024-02-26T07:29:00;4.67;;;4.27;;
7997;SDS011;4044;49.814;7.828;2024-02-26T07:31:26;4.30;;;3.90;;
7997;SDS011;4044;49.814;7.828;2024-02-26T07:33:51;4.10;;;3.80;;
7997;SDS011;4044;49.814;7.828;2024-02-26T07:36:17;4.00;;;3.70;;
7997;SDS011;4044;49.814;7.828;2024-02-26T07:38:42;4.60;;;4.20;;
7997;SDS011;4044;49.814;7.828;2024-02-26T07:41:08;4.90;;;4.50;;
7997;SDS011;4044;49.814;7.828;2024-02-26T07:43:34;4.83;;;4.30;;
7997;SDS011;4044;49.814;7.828;2024-02-26T07:45:59;4.00;;;3.70;;
7997;SDS011;4044;49.814;7.828;2024-02-26T07:48:25;4.40;;;4.10;;
7997;SDS011;4044;49.814;7.828;2024-02-26T07:50:50;4.50;;;4.07;;
7997;SDS011;4044;49.814;7.828;2024-02-26T07:53:16;5.13;;;4.63;;
7997;SDS011;4044;49.814;7.828;2024-02-26T07:55:41;5.00;;;4.60;;
7997;SDS011;4044;49.814;7.828;2024-02-26T07:58:07;4.90;;;4.40;;
7997;SDS011;4044;49.814;7.828;2024-02-26T08:00:33;4.70;;;4.30;;
7997;SDS011;4044;49.814;7.828;2024-02-26T08:02:58;5.17;;;4.53;;
7997;SDS011;4044;49.814;7.828;2024-02-26T08:05:24;5.53;;;4.90;;
7997;SDS011;4044;49.814;7.828;2024-02-26T08:07:50;5.00;;;4.60;;
7997;SDS011;4044;49.814;7.828;2024-02-26T08:10:15;5.13;;;4.63;;
7997;SDS011;4044;49.814;7.828;2024-02-26T08:12:42;4.70;;;4.30;;
7997;SDS011;4044;49.814;7.828;2024-02-26T08:15:08;4.90;;;4.50;;
7997;SDS011;4044;49.814;7.828;2024-02-26T08:17:33;4.67;;;4.30;;
7997;SDS011;4044;49.814;7.828;2024-02-26T08:19:59;4.47;;;4.17;;
7997;SDS011;4044;49.814;7.828;2024-02-26T08:22:25;4.87;;;4.40;;
7997;SDS011;4044;49.814;7.828;2024-02-26T08:24:51;4.50;;;4.10;;
7997;SDS011;4044;49.814;7.828;2024-02-26T08:27:16;4.63;;;3.97;;
7997;SDS011;4044;49.814;7.828;2024-02-26T08:29:42;5.53;;;4.80;;
7997;SDS011;4044;49.814;7.828;2024-02-26T08:32:08;6.43;;;4.93;;
7997;SDS011;4044;49.814;7.828;2024-02-26T08:34:33;4.70;;;4.30;;
7997;SDS011;4044;49.814;7.828;2024-02-26T08:36:59;4.90;;;4.40;;
7997;SDS011;4044;49.814;7.828;2024-02-26T08:39:24;4.90;;;4.50;;
7997;SDS011;4044;49.814;7.828;2024-02-26T08:41:50;4.63;;;4.27;;
7997;SDS011;4044;49.814;7.828;2024-02-26T08:44:16;4.87;;;4.47;;
7997;SDS011;4044;49.814;7.828;2024-02-26T08:46:42;4.93;;;4.47;;
7997;SDS011;4044;49.814;7.828;2024-02-26T08:49:07;4.53;;;4.23;;
7997;SDS011;4044;49.814;7.828;2024-02-26T08:51:33;4.87;;;4.40;;
7997;SDS011;4044;49.814;7.828;2024-02-26T08:53:58;5.27;;;4.83;;
7997;SDS011;4044;49.814;7.828;2024-02-26T08:56:24;4.57;;;4.17;;
7997;SDS011;4044;49.814;7.828;2024-02-26T08:58:49;4.37;;;3.93;;
7997;SDS011;4044;49.814;7.828;2024-02-26T09:01:18;6.53;;;4.60;;
7997;SDS011;4044;49.814;7.828;2024-02-26T09:03:44;4.43;;;4.03;;
7997;SDS011;4044;49.814;7.828;2024-02-26T09:06:09;5.00;;;4.50;;
7997;SDS011;4044;49.814;7.828;2024-02-26T09:08:36;4.10;;;3.80;;
7997;SDS011;4044;49.814;7.828;2024-02-26T09:11:02;4.47;;;4.07;;
7997;SDS011;4044;49.814;7.828;2024-02-26T09:13:28;4.00;;;3.70;;
7997;SDS011;4044;49.814;7.828;2024-02-26T09:15:54;4.37;;;3.63;;
7997;SDS011;4044;49.814;7.828;2024-02-26T09:18:20;4.10;;;3.80;;
7997;SDS011;4044;49.814;7.828;2024-02-26T09:20:45;3.90;;;3.60;;
7997;SDS011;4044;49.814;7.828;2024-02-26T09:23:11;3.80;;;3.50;;
7997;SDS011;4044;49.814;7.828;2024-02-26T09:25:37;3.33;;;3.13;;
7997;SDS011;4044;49.814;7.828;2024-02-26T09:28:02;3.50;;;3.30;;
7997;SDS011;4044;49.814;7.828;2024-02-26T09:30:28;3.83;;;3.53;;
7997;SDS011;4044;49.814;7.828;2024-02-26T09:32:54;3.97;;;3.67;;
7997;SDS011;4044;49.814;7.828;2024-02-26T09:35:19;3.80;;;3.50;;
7997;SDS011;4044;49.814;7.828;2024-02-26T09:37:46;4.10;;;3.80;;
7997;SDS011;4044;49.814;7.828;2024-02-26T09:40:14;3.97;;;3.70;;
7997;SDS011;4044;49.814;7.828;2024-02-26T09:42:43;4.80;;;3.27;;
7997;SDS011;4044;49.814;7.828;2024-02-26T09:45:10;4.77;;;3.30;;
7997;SDS011;4044;49.814;7.828;2024-02-26T09:47:42;3.77;;;3.47;;
7997;SDS011;4044;49.814;7.828;2024-02-26T09:50:08;3.43;;;3.13;;
7997;SDS011;4044;49.814;7.828;2024-02-26T09:52:34;3.50;;;3.30;;
7997;SDS011;4044;49.814;7.828;2024-02-26T09:55:03;3.77;;;3.50;;
7997;SDS011;4044;49.814;7.828;2024-02-26T09:57:29;3.40;;;3.10;;
7997;SDS011;4044;49.814;7.828;2024-02-26T09:59:57;3.50;;;3.20;;
7997;SDS011;4044;49.814;7.828;2024-02-26T10:02:28;2.97;;;2.77;;
7997;SDS011;4044;49.814;7.828;2024-02-26T10:04:54;2.80;;;2.60;;
7997;SDS011;4044;49.814;7.828;2024-02-26T10:07:22;3.40;;;2.60;;
7997;SDS011;4044;49.814;7.828;2024-02-26T10:09:48;2.90;;;2.70;;
7997;SDS011;4044;49.814;7.828;2024-02-26T10:12:14;3.30;;;3.10;;
7997;SDS011;4044;49.814;7.828;2024-02-26T10:14:42;3.60;;;2.83;;
7997;SDS011;4044;49.814;7.828;2024-02-26T10:17:07;3.40;;;3.10;;
7997;SDS011;4044;49.814;7.828;2024-02-26T10:19:34;3.13;;;2.93;;
7997;SDS011;4044;49.814;7.828;2024-02-26T10:22:00;3.20;;;3.00;;
7997;SDS011;4044;49.814;7.828;2024-02-26T10:24:27;3.20;;;3.00;;
7997;SDS011;4044;49.814;7.828;2024-02-26T10:26:54;3.30;;;3.10;;
7997;SDS011;4044;49.814;7.828;2024-02-26T10:29:20;3.70;;;3.13;;
7997;SDS011;4044;49.814;7.828;2024-02-26T10:31:47;3.03;;;2.83;;
7997;SDS011;4044;49.814;7.828;2024-02-26T10:34:12;2.93;;;2.73;;
7997;SDS011;4044;49.814;7.828;2024-02-26T10:36:40;3.07;;;2.87;;
7997;SDS011;4044;49.814;7.828;2024-02-26T10:39:09;3.63;;;3.33;;
7997;SDS011;4044;49.814;7.828;2024-02-26T10:41:36;3.50;;;3.30;;
7997;SDS011;4044;49.814;7.828;2024-02-26T10:44:03;3.50;;;3.20;;
7997;SDS011;4044;49.814;7.828;2024-02-26T10:46:28;3.67;;;3.30;;
7997;SDS011;4044;49.814;7.828;2024-02-26T10:48:54;4.07;;;3.77;;
7997;SDS011;4044;49.814;7.828;2024-02-26T10:51:21;4.20;;;3.90;;
7997;SDS011;4044;49.814;7.828;2024-02-26T10:53:53;4.27;;;3.97;;
7997;SDS011;4044;49.814;7.828;2024-02-26T10:56:24;4.43;;;4.13;;
7997;SDS011;4044;49.814;7.828;2024-02-26T10:58:52;4.30;;;4.00;;
7997;SDS011;4044;49.814;7.828;2024-02-26T11:01:18;4.23;;;3.93;;
7997;SDS011;4044;49.814;7.828;2024-02-26T11:03:46;5.27;;;4.87;;
7997;SDS011;4044;49.814;7.828;2024-02-26T11:06:13;5.27;;;4.77;;
7997;SDS011;4044;49.814;7.828;2024-02-26T11:08:39;5.20;;;4.80;;
7997;SDS011;4044;49.814;7.828;2024-02-26T11:11:06;5.87;;;5.37;;
7997;SDS011;4044;49.814;7.828;2024-02-26T11:13:32;6.37;;;5.77;;
7997;SDS011;4044;49.814;7.828;2024-02-26T11:16:00;6.10;;;5.60;;
7997;SDS011;4044;49.814;7.828;2024-02-26T11:18:26;7.03;;;6.20;;
7997;SDS011;4044;49.814;7.828;2024-02-26T11:20:54;6.83;;;6.23;;
7997;SDS011;4044;49.814;7.828;2024-02-26T11:23:22;6.23;;;5.73;;
7997;SDS011;4044;49.814;7.828;2024-02-26T11:25:48;7.33;;;6.20;;
7997;SDS011;4044;49.814;7.828;2024-02-26T11:28:19;7.90;;;6.47;;
7997;SDS011;4044;49.814;7.828;2024-02-26T11:30:47;6.87;;;6.17;;
7997;SDS011;4044;49.814;7.828;2024-02-26T11:33:14;6.83;;;6.03;;
7997;SDS011;4044;49.814;7.828;2024-02-26T11:35:40;6.80;;;6.20;;
7997;SDS011;4044;49.814;7.828;2024-02-26T11:38:06;6.93;;;6.27;;
7997;SDS011;4044;49.814;7.828;2024-02-26T11:40:32;8.90;;;6.43;;
7997;SDS011;4044;49.814;7.828;2024-02-26T11:42:58;6.87;;;6.27;;
7997;SDS011;4044;49.814;7.828;2024-02-26T11:48:12;7.00;;;6.30;;
7997;SDS011;4044;49.814;7.828;2024-02-26T11:50:39;6.53;;;5.93;;
7997;SDS011;4044;49.814;7.828;2024-02-26T11:53:22;6.23;;;5.63;;
7997;SDS011;4044;49.814;7.828;2024-02-26T11:56:11;6.50;;;5.90;;
7997;SDS011;4044;49.814;7.828;2024-02-26T11:58:41;7.43;;;6.73;;
7997;SDS011;4044;49.814;7.828;2024-02-26T12:04:04;6.60;;;5.90;;
7997;SDS011;4044;49.814;7.828;2024-02-26T12:06:31;7.00;;;5.87;;
7997;SDS011;4044;49.814;7.828;2024-02-26T12:09:05;6.27;;;5.73;;
7997;SDS011;4044;49.814;7.828;2024-02-26T12:11:32;5.67;;;5.17;;
7997;SDS011;4044;49.814;7.828;2024-02-26T12:13:58;6.20;;;5.67;;
7997;SDS011;4044;49.814;7.828;2024-02-26T12:16:36;6.00;;;5.50;;
7997;SDS011;4044;49.814;7.828;2024-02-26T12:19:06;5.73;;;5.20;;
7997;SDS011;4044;49.814;7.828;2024-02-26T12:21:36;6.53;;;5.23;;
7997;SDS011;4044;49.814;7.828;2024-02-26T12:24:14;8.07;;;5.83;;
7997;SDS011;4044;49.814;7.828;2024-02-26T12:26:43;5.60;;;5.10;;
7997;SDS011;4044;49.814;7.828;2024-02-26T12:29:09;6.10;;;5.50;;
7997;SDS011;4044;49.814;7.828;2024-02-26T12:31:36;6.60;;;5.47;;
7997;SDS011;4044;49.814;7.828;2024-02-26T12:34:02;6.43;;;5.83;;
7997;SDS011;4044;49.814;7.828;2024-02-26T12:36:28;6.43;;;5.83;;
7997;SDS011;4044;49.814;7.828;2024-02-26T12:38:54;6.17;;;5.57;;
7997;SDS011;4044;49.814;7.828;2024-02-26T12:41:20;6.47;;;5.87;;
7997;SDS011;4044;49.814;7.828;2024-02-26T12:43:47;6.40;;;5.90;;
7997;SDS011;4044;49.814;7.828;2024-02-26T12:46:12;6.77;;;5.60;;
7997;SDS011;4044;49.814;7.828;2024-02-26T12:48:41;6.17;;;5.50;;
7997;SDS011;4044;49.814;7.828;2024-02-26T12:51:09;6.43;;;5.83;;
7997;SDS011;4044;49.814;7.828;2024-02-26T12:53:35;6.53;;;5.97;;
7997;SDS011;4044;49.814;7.828;2024-02-26T12:56:01;6.73;;;6.13;;
7997;SDS011;4044;49.814;7.828;2024-02-26T12:58:28;8.57;;;5.80;;
7997;SDS011;4044;49.814;7.828;2024-02-26T13:00:56;6.10;;;5.60;;
7997;SDS011;4044;49.814;7.828;2024-02-26T13:03:22;7.03;;;6.33;;
7997;SDS011;4044;49.814;7.828;2024-02-26T13:05:48;6.40;;;5.90;;
7997;SDS011;4044;49.814;7.828;2024-02-26T13:08:18;6.73;;;5.83;;
7997;SDS011;4044;49.814;7.828;2024-02-26T13:10:46;6.47;;;5.57;;
7997;SDS011;4044;49.814;7.828;2024-02-26T13:13:16;6.00;;;5.40;;
7997;SDS011;4044;49.814;7.828;2024-02-26T13:15:42;6.80;;;5.50;;
7997;SDS011;4044;49.814;7.828;2024-02-26T13:18:09;7.23;;;5.70;;
7997;SDS011;4044;49.814;7.828;2024-02-26T13:20:36;6.10;;;5.50;;
7997;SDS011;4044;49.814;7.828;2024-02-26T13:23:02;6.30;;;5.73;;
7997;SDS011;4044;49.814;7.828;2024-02-26T13:25:28;7.83;;;5.77;;
7997;SDS011;4044;49.814;7.828;2024-02-26T13:28:04;6.73;;;5.60;;
7997;SDS011;4044;49.814;7.828;2024-02-26T13:30:33;6.13;;;5.53;;
7997;SDS011;4044;49.814;7.828;2024-02-26T13:33:06;7.77;;;5.07;;
7997;SDS011;4044;49.814;7.828;2024-02-26T13:35:34;5.87;;;5.27;;
7997;SDS011;4044;49.814;7.828;2024-02-26T13:38:00;7.07;;;4.97;;
7997;SDS011;4044;49.814;7.828;2024-02-26T13:40:25;5.40;;;4.90;;
7997;SDS011;4044;49.814;7.828;2024-02-26T13:42:51;5.17;;;4.67;;
7997;SDS011;4044;49.814;7.828;2024-02-26T13:45:17;5.00;;;4.60;;
7997;SDS011;4044;49.814;7.828;2024-02-26T13:47:43;6.00;;;4.80;;
7997;SDS011;4044;49.814;7.828;2024-02-26T13:50:09;5.30;;;4.80;;
7997;SDS011;4044;49.814;7.828;2024-02-26T13:52:35;5.27;;;4.77;;
7997;SDS011;4044;49.814;7.828;2024-02-26T13:55:00;6.80;;;4.70;;
7997;SDS011;4044;49.814;7.828;2024-02-26T13:57:27;5.03;;;4.57;;
7997;SDS011;4044;49.814;7.828;2024-02-26T13:59:53;5.53;;;5.03;;
7997;SDS011;4044;49.814;7.828;2024-02-26T14:02:19;4.97;;;4.53;;
7997;SDS011;4044;49.814;7.828;2024-02-26T14:04:45;5.27;;;4.87;;
7997;SDS011;4044;49.814;7.828;2024-02-26T14:07:12;5.57;;;4.93;;
7997;SDS011;4044;49.814;7.828;2024-02-26T14:09:38;5.35;;;4.80;;
7997;SDS011;4044;49.814;7.828;2024-02-26T14:12:03;5.60;;;5.10;;
7997;SDS011;4044;49.814;7.828;2024-02-26T14:14:29;5.20;;;4.70;;
7997;SDS011;4044;49.814;7.828;2024-02-26T14:16:57;5.47;;;4.50;;
7997;SDS011;4044;49.814;7.828;2024-02-26T14:19:23;5.70;;;4.80;;
7997;SDS011;4044;49.814;7.828;2024-02-26T14:21:49;6.33;;;5.23;;
7997;SDS011;4044;49.814;7.828;2024-02-26T14:24:14;5.33;;;4.93;;
7997;SDS011;4044;49.814;7.828;2024-02-26T14:26:40;5.40;;;4.90;;
7997;SDS011;4044;49.814;7.828;2024-02-26T14:29:07;5.50;;;4.90;;
7997;SDS011;4044;49.814;7.828;2024-02-26T14:31:32;5.73;;;4.73;;
7997;SDS011;4044;49.814;7.828;2024-02-26T14:33:58;6.03;;;5.33;;
7997;SDS011;4044;49.814;7.828;2024-02-26T14:36:24;6.70;;;5.00;;
7997;SDS011;4044;49.814;7.828;2024-02-26T14:38:50;5.17;;;4.67;;
7997;SDS011;4044;49.814;7.828;2024-02-26T14:41:16;7.00;;;5.17;;
7997;SDS011;4044;49.814;7.828;2024-02-26T14:43:41;5.90;;;5.33;;
7997;SDS011;4044;49.814;7.828;2024-02-26T14:46:07;5.63;;;5.13;;
7997;SDS011;4044;49.814;7.828;2024-02-26T14:48:32;5.33;;;4.83;;
7997;SDS011;4044;49.814;7.828;2024-02-26T14:50:58;5.30;;;4.80;;
7997;SDS011;4044;49.814;7.828;2024-02-26T14:53:25;4.90;;;4.50;;
7997;SDS011;4044;49.814;7.828;2024-02-26T14:55:51;4.97;;;4.57;;
7997;SDS011;4044;49.814;7.828;2024-02-26T14:58:16;5.60;;;5.10;;
7997;SDS011;4044;49.814;7.828;2024-02-26T15:00:42;5.40;;;4.90;;
7997;SDS011;4044;49.814;7.828;2024-02-26T15:03:08;5.00;;;4.50;;
7997;SDS011;4044;49.814;7.828;2024-02-26T15:05:34;5.83;;;5.33;;
7997;SDS011;4044;49.814;7.828;2024-02-26T15:07:59;5.10;;;4.60;;
7997;SDS011;4044;49.814;7.828;2024-02-26T15:10:25;5.20;;;4.73;;
7997;SDS011;4044;49.814;7.828;2024-02-26T15:12:51;5.57;;;4.90;;
7997;SDS011;4044;49.814;7.828;2024-02-26T15:15:20;5.27;;;4.80;;